Time;durP1;ratioP1;P1;durP2;ratioP2;P2;SDS_P1;SDS_P2;PMS_P1;PMS_P2;Temp;Humidity;BMP_temperature;BMP_pressure;BME280_temperature;BME280_humidity;BME280_pressure;Samples;Min_cycle;Max_cycle;Signal;HPM_P1;HPM_P2
2022/08/31 00:04:52;;;;;;;11.68;7.38;;;;;;;;;;2023802;29;20503;-88
2022/08/31 00:05:58;;;;;;;16.67;8.35;;;;;;;;;;2023561;29;20038;-87
2022/08/31 00:06:58;;;;;;;12.57;7.93;;;;;;;;;;2023681;29;20029;-87
2022/08/31 00:07:59;;;;;;;12.30;8.45;;;;;;;;;;2015142;29;20341;-87
2022/08/31 00:09:01;;;;;;;15.88;8.23;;;;;;;;;;2007557;29;20034;-88
2022/08/31 00:10:13;;;;;;;12.35;7.78;;;;;;;;;;2015200;29;20029;-88
2022/08/31 00:11:15;;;;;;;12.38;8.20;;;;;;;;;;2016687;29;20105;-88
2022/08/31 00:12:16;;;;;;;12.02;8.32;;;;;;;;;;2023453;29;20517;-87
2022/08/31 00:13:17;;;;;;;12.05;7.78;;;;;;;;;;2023556;29;20047;-88
2022/08/31 00:14:17;;;;;;;12.25;7.65;;;;;;;;;;2014921;29;20048;-88
2022/08/31 00:15:21;;;;;;;10.75;8.10;;;;;;;;;;2007433;29;20030;-88
2022/08/31 00:16:22;;;;;;;10.93;7.85;;;;;;;;;;2014879;29;20085;-88
2022/08/31 00:17:22;;;;;;;12.00;8.15;;;;;;;;;;2007912;29;20026;-88
2022/08/31 00:18:23;;;;;;;15.77;8.13;;;;;;;;;;2016566;29;20258;-88
2022/08/31 00:19:23;;;;;;;9.85;8.13;;;;;;;;;;2024344;29;20535;-88
2022/08/31 00:20:26;;;;;;;14.05;8.80;;;;;;;;;;2024247;29;20567;-88
2022/08/31 00:21:27;;;;;;;11.30;8.45;;;;;;;;;;2016484;29;20504;-87
2022/08/31 00:22:27;;;;;;;15.32;8.48;;;;;;;;;;2016457;29;20032;-88
2022/08/31 00:23:28;;;;;;;11.60;8.02;;;;;;;;;;2016479;29;20028;-87
2022/08/31 00:24:29;;;;;;;11.52;8.68;;;;;;;;;;2016452;29;20099;-87
2022/08/31 00:25:30;;;;;;;11.57;8.73;;;;;;;;;;2024923;29;20063;-87
2022/08/31 00:26:30;;;;;;;10.70;9.07;;;;;;;;;;2024803;29;20028;-87
2022/08/31 00:27:31;;;;;;;12.55;8.45;;;;;;;;;;2024737;29;20036;-88
2022/08/31 00:28:31;;;;;;;10.38;8.32;;;;;;;;;;2025048;29;20037;-88
2022/08/31 00:29:31;;;;;;;10.82;8.23;;;;;;;;;;2016387;29;20033;-87
2022/08/31 00:30:32;;;;;;;12.70;9.07;;;;;;;;;;2016399;29;20028;-87
2022/08/31 00:31:32;;;;;;;10.98;8.70;;;;;;;;;;2024169;29;20146;-88
2022/08/31 00:32:33;;;;;;;11.65;8.70;;;;;;;;;;2016452;29;20053;-87
2022/08/31 00:33:35;;;;;;;12.57;8.52;;;;;;;;;;2008655;29;20029;-87
2022/08/31 00:34:36;;;;;;;14.40;9.20;;;;;;;;;;2008823;29;20492;-88
2022/08/31 00:35:40;;;;;;;10.60;8.30;;;;;;;;;;2016438;29;20100;-86
2022/08/31 00:36:40;;;;;;;10.63;8.32;;;;;;;;;;2016314;29;20025;-88
2022/08/31 00:37:41;;;;;;;13.35;9.18;;;;;;;;;;2016400;29;20036;-88
2022/08/31 00:38:41;;;;;;;17.33;9.15;;;;;;;;;;2016387;29;20021;-89
2022/08/31 00:39:42;;;;;;;13.15;8.25;;;;;;;;;;2008642;29;20029;-89
2022/08/31 00:40:45;;;;;;;12.82;8.90;;;;;;;;;;2008784;29;20432;-89
2022/08/31 00:41:46;;;;;;;12.55;8.65;;;;;;;;;;2016707;29;20445;-90
2022/08/31 00:42:47;;;;;;;13.02;8.82;;;;;;;;;;2016534;29;20060;-89
2022/08/31 00:43:51;;;;;;;12.05;8.55;;;;;;;;;;2016414;29;20033;-89
2022/08/31 00:44:51;;;;;;;13.02;8.90;;;;;;;;;;2016250;29;20033;-89
2022/08/31 00:45:52;;;;;;;15.50;7.88;;;;;;;;;;2016662;29;20501;-89
2022/08/31 00:46:52;;;;;;;10.27;8.20;;;;;;;;;;2008579;29;20025;-89
2022/08/31 00:47:53;;;;;;;11.32;8.82;;;;;;;;;;2008759;29;20108;-89
2022/08/31 00:49:11;;;;;;;10.90;8.05;;;;;;;;;;2008799;29;20021;-89
2022/08/31 00:50:14;;;;;;;9.98;8.90;;;;;;;;;;2018722;29;20032;-88
2022/08/31 00:51:15;;;;;;;13.45;8.55;;;;;;;;;;2016331;29;20020;-88
2022/08/31 00:52:23;;;;;;;10.27;7.97;;;;;;;;;;2016373;29;20045;-87
2022/08/31 00:53:24;;;;;;;11.52;8.43;;;;;;;;;;2024669;29;20035;-88
2022/08/31 00:54:30;;;;;;;12.80;8.63;;;;;;;;;;2024772;29;20108;-88
2022/08/31 00:55:36;;;;;;;14.88;9.18;;;;;;;;;;2024695;29;20087;-88
2022/08/31 00:56:37;;;;;;;17.42;9.25;;;;;;;;;;1678529;29;10249249;-88
2022/08/31 00:57:41;;;;;;;14.45;8.77;;;;;;;;;;2024913;29;20042;-88
2022/08/31 00:58:43;;;;;;;12.77;7.97;;;;;;;;;;2024883;29;20055;-87
2022/08/31 00:59:46;;;;;;;10.07;8.77;;;;;;;;;;2016356;29;20041;-88
2022/08/31 01:00:47;;;;;;;11.82;8.18;;;;;;;;;;2016438;29;20029;-88
2022/08/31 01:01:48;;;;;;;13.63;9.20;;;;;;;;;;2016122;29;20165;-88
2022/08/31 01:02:50;;;;;;;15.88;8.25;;;;;;;;;;2016133;29;20154;-87
2022/08/31 01:03:50;;;;;;;11.70;9.00;;;;;;;;;;2016095;29;20405;-87
2022/08/31 01:04:51;;;;;;;12.93;8.15;;;;;;;;;;1673786;29;10177016;-88
2022/08/31 01:05:51;;;;;;;14.10;8.30;;;;;;;;;;2024670;29;20024;-88
2022/08/31 01:06:52;;;;;;;13.20;8.73;;;;;;;;;;2024572;29;20080;-88
2022/08/31 01:07:53;;;;;;;10.88;9.02;;;;;;;;;;2024619;29;20508;-88
2022/08/31 01:08:56;;;;;;;12.63;8.48;;;;;;;;;;2024473;29;20481;-88
2022/08/31 01:09:58;;;;;;;14.05;8.40;;;;;;;;;;2016224;29;20110;-88
2022/08/31 01:10:59;;;;;;;12.18;8.15;;;;;;;;;;2008389;29;20438;-89
2022/08/31 01:12:00;;;;;;;11.48;8.40;;;;;;;;;;2016178;29;20033;-88
2022/08/31 01:13:00;;;;;;;13.43;8.48;;;;;;;;;;2024643;29;20179;-88
2022/08/31 01:14:01;;;;;;;11.50;8.13;;;;;;;;;;2024624;29;20040;-88
2022/08/31 01:15:06;;;;;;;12.13;8.73;;;;;;;;;;2024469;29;20033;-89
2022/08/31 01:16:15;;;;;;;12.35;8.18;;;;;;;;;;2016008;29;20496;-88
2022/08/31 01:17:16;;;;;;;12.68;8.30;;;;;;;;;;2017290;29;20036;-88
2022/08/31 01:18:18;;;;;;;12.50;8.77;;;;;;;;;;2016132;29;20021;-89
2022/08/31 01:19:40;;;;;;;11.27;8.40;;;;;;;;;;2016081;29;20477;-88
2022/08/31 01:21:16;;;;;;;9.55;7.82;;;;;;;;;;2024652;29;20024;-88
2022/08/31 01:22:29;;;;;;;12.63;8.35;;;;;;;;;;2015975;29;20029;-88
2022/08/31 01:23:37;;;;;;;10.73;8.65;;;;;;;;;;2017791;29;20037;-89
2022/08/31 01:24:40;;;;;;;13.48;8.48;;;;;;;;;;2016123;29;20470;-89
2022/08/31 01:25:43;;;;;;;11.10;8.18;;;;;;;;;;2008495;29;20033;-88
2022/08/31 01:26:43;;;;;;;14.00;8.27;;;;;;;;;;2016271;29;20025;-88
2022/08/31 01:27:45;;;;;;;12.98;8.02;;;;;;;;;;2015914;29;20271;-88
2022/08/31 01:28:46;;;;;;;10.98;8.45;;;;;;;;;;2015431;29;20481;-88
2022/08/31 01:29:46;;;;;;;12.05;9.45;;;;;;;;;;2015710;29;20040;-88
2022/08/31 01:31:06;;;;;;;12.35;8.52;;;;;;;;;;2016024;29;20028;-88
2022/08/31 01:32:07;;;;;;;15.68;8.25;;;;;;;;;;2024346;29;20028;-89
2022/08/31 01:33:08;;;;;;;8.98;7.68;;;;;;;;;;2016136;29;20044;-88
2022/08/31 01:34:09;;;;;;;14.40;8.13;;;;;;;;;;2015837;29;20039;-88
2022/08/31 01:35:09;;;;;;;11.07;8.25;;;;;;;;;;2024262;29;20132;-88
2022/08/31 01:36:10;;;;;;;10.65;8.90;;;;;;;;;;2015897;29;20473;-88
2022/08/31 01:37:11;;;;;;;13.55;8.00;;;;;;;;;;2008448;29;20025;-88
2022/08/31 01:38:12;;;;;;;12.57;8.55;;;;;;;;;;2016039;29;20059;-87
2022/08/31 01:39:13;;;;;;;11.02;8.35;;;;;;;;;;2015974;29;20078;-88
2022/08/31 01:40:14;;;;;;;12.05;8.20;;;;;;;;;;2015993;29;20133;-87
2022/08/31 01:41:15;;;;;;;13.13;8.82;;;;;;;;;;2024571;29;20523;-87
2022/08/31 01:42:17;;;;;;;13.32;8.57;;;;;;;;;;2015935;29;20096;-87
2022/08/31 01:43:17;;;;;;;10.75;8.27;;;;;;;;;;2016089;29;20516;-87
2022/08/31 01:44:22;;;;;;;14.07;8.65;;;;;;;;;;2024327;29;20048;-87
2022/08/31 01:45:22;;;;;;;10.32;8.63;;;;;;;;;;2024361;29;20033;-88
2022/08/31 01:46:23;;;;;;;11.73;8.70;;;;;;;;;;2024322;29;20055;-88
2022/08/31 01:47:24;;;;;;;11.82;8.32;;;;;;;;;;2024488;29;20062;-88
2022/08/31 01:48:25;;;;;;;12.82;8.60;;;;;;;;;;2024351;29;20046;-87
2022/08/31 01:49:25;;;;;;;11.65;8.40;;;;;;;;;;2024360;29;20060;-88
2022/08/31 01:50:26;;;;;;;9.77;8.32;;;;;;;;;;2024274;29;20511;-86
2022/08/31 01:51:26;;;;;;;12.20;8.55;;;;;;;;;;2015966;29;20088;-86
2022/08/31 01:52:27;;;;;;;9.82;8.02;;;;;;;;;;2008134;29;20055;-85
2022/08/31 01:53:28;;;;;;;11.95;8.00;;;;;;;;;;2016021;29;20040;-87
2022/08/31 01:54:28;;;;;;;13.35;8.75;;;;;;;;;;2024227;29;20111;-86
2022/08/31 01:55:29;;;;;;;14.15;9.38;;;;;;;;;;2024166;29;20109;-87
2022/08/31 01:56:33;;;;;;;10.38;9.00;;;;;;;;;;2015792;29;20436;-87
2022/08/31 01:57:34;;;;;;;12.60;8.27;;;;;;;;;;2016350;29;20037;-86
2022/08/31 01:58:34;;;;;;;12.15;7.90;;;;;;;;;;2024143;29;20052;-86
2022/08/31 01:59:34;;;;;;;12.70;8.00;;;;;;;;;;2024140;29;20503;-86
2022/08/31 02:00:35;;;;;;;10.02;8.25;;;;;;;;;;2024199;29;20033;-88
2022/08/31 02:01:44;;;;;;;13.82;7.88;;;;;;;;;;1671977;29;10211674;-88
2022/08/31 02:02:44;;;;;;;11.32;8.43;;;;;;;;;;2018464;29;20037;-88
2022/08/31 02:03:45;;;;;;;11.82;8.50;;;;;;;;;;2024740;29;20511;-87
2022/08/31 02:04:46;;;;;;;11.05;8.70;;;;;;;;;;2024155;29;20031;-88
2022/08/31 02:05:46;;;;;;;12.23;8.85;;;;;;;;;;2024138;29;20029;-88
2022/08/31 02:06:50;;;;;;;14.10;8.35;;;;;;;;;;2015693;29;20476;-87
2022/08/31 02:07:51;;;;;;;10.95;8.07;;;;;;;;;;2015870;29;20516;-88
2022/08/31 02:08:51;;;;;;;12.05;8.13;;;;;;;;;;2015836;29;20024;-88
2022/08/31 02:09:51;;;;;;;12.00;8.23;;;;;;;;;;2008027;29;20021;-87
2022/08/31 02:10:52;;;;;;;10.38;7.90;;;;;;;;;;2008026;29;20048;-87
2022/08/31 02:11:52;;;;;;;14.00;8.52;;;;;;;;;;2015754;29;20059;-88
2022/08/31 02:12:53;;;;;;;10.90;8.35;;;;;;;;;;2015551;29;20025;-87
2022/08/31 02:13:53;;;;;;;12.52;8.18;;;;;;;;;;2007858;29;20097;-87
2022/08/31 02:14:53;;;;;;;11.63;9.13;;;;;;;;;;2007800;29;20045;-88
2022/08/31 02:15:54;;;;;;;10.88;8.38;;;;;;;;;;2015708;29;20034;-88
2022/08/31 02:16:54;;;;;;;10.25;8.18;;;;;;;;;;2015647;29;20047;-87
2022/08/31 02:17:55;;;;;;;12.32;8.75;;;;;;;;;;2015633;29;20029;-88
2022/08/31 02:18:55;;;;;;;13.13;9.00;;;;;;;;;;2024172;29;20025;-87
2022/08/31 02:19:57;;;;;;;12.20;8.43;;;;;;;;;;2015713;29;20032;-88
2022/08/31 02:20:57;;;;;;;11.20;8.50;;;;;;;;;;2015749;29;20033;-87
2022/08/31 02:21:58;;;;;;;11.80;8.23;;;;;;;;;;2015492;29;20028;-87
2022/08/31 02:23:01;;;;;;;12.75;9.60;;;;;;;;;;2015692;29;20519;-87
2022/08/31 02:24:03;;;;;;;12.40;9.48;;;;;;;;;;2023978;29;20036;-87
2022/08/31 02:25:04;;;;;;;14.05;8.55;;;;;;;;;;2015491;29;20524;-87
2022/08/31 02:26:04;;;;;;;12.30;8.38;;;;;;;;;;2015490;29;20032;-87
2022/08/31 02:27:05;;;;;;;9.77;8.43;;;;;;;;;;2015542;29;20058;-88
2022/08/31 02:28:05;;;;;;;11.68;8.65;;;;;;;;;;2008018;29;20072;-88
2022/08/31 02:29:06;;;;;;;11.88;9.23;;;;;;;;;;2015624;29;20052;-88
2022/08/31 02:30:11;;;;;;;8.70;7.85;;;;;;;;;;2024023;29;20498;-88
2022/08/31 02:31:12;;;;;;;10.63;8.13;;;;;;;;;;2015605;29;20438;-88
2022/08/31 02:32:12;;;;;;;9.88;7.78;;;;;;;;;;2007838;29;20026;-88
2022/08/31 02:33:13;;;;;;;11.77;7.32;;;;;;;;;;2015776;29;20183;-88
2022/08/31 02:34:16;;;;;;;11.57;8.05;;;;;;;;;;2015379;29;20036;-88
2022/08/31 02:35:16;;;;;;;11.52;8.20;;;;;;;;;;2015513;29;20025;-88
2022/08/31 02:36:17;;;;;;;15.13;8.63;;;;;;;;;;2015553;29;20099;-87
2022/08/31 02:37:18;;;;;;;12.48;8.68;;;;;;;;;;2015347;29;20032;-88
2022/08/31 02:38:18;;;;;;;14.48;8.10;;;;;;;;;;2015528;29;20499;-88
2022/08/31 02:39:19;;;;;;;9.02;8.07;;;;;;;;;;2015334;29;20073;-88
2022/08/31 02:40:19;;;;;;;15.00;8.48;;;;;;;;;;2015405;29;20017;-87
2022/08/31 02:41:19;;;;;;;14.90;8.75;;;;;;;;;;2015480;29;20476;-88
2022/08/31 02:42:20;;;;;;;10.52;8.63;;;;;;;;;;2015576;29;20051;-88
2022/08/31 02:43:20;;;;;;;15.10;8.57;;;;;;;;;;2015423;29;20021;-87
2022/08/31 02:44:21;;;;;;;11.55;8.00;;;;;;;;;;2015428;29;20013;-87
2022/08/31 02:45:22;;;;;;;10.38;7.82;;;;;;;;;;2023713;29;20485;-88
2022/08/31 02:46:22;;;;;;;13.32;7.88;;;;;;;;;;2015319;29;20066;-88
2022/08/31 02:47:22;;;;;;;12.95;8.55;;;;;;;;;;2015471;29;20096;-88
2022/08/31 02:48:23;;;;;;;13.80;8.40;;;;;;;;;;2023800;29;20021;-87
2022/08/31 02:49:24;;;;;;;10.00;7.78;;;;;;;;;;2023769;29;20123;-87
2022/08/31 02:50:24;;;;;;;10.43;7.88;;;;;;;;;;2015559;29;20029;-87
2022/08/31 02:51:24;;;;;;;12.65;8.18;;;;;;;;;;2015498;29;20041;-87
2022/08/31 02:52:25;;;;;;;10.98;8.38;;;;;;;;;;2023878;29;20088;-87
2022/08/31 02:53:25;;;;;;;12.77;8.85;;;;;;;;;;2015453;29;20508;-87
2022/08/31 02:54:26;;;;;;;10.63;8.00;;;;;;;;;;2015403;29;20025;-88
2022/08/31 02:55:26;;;;;;;12.80;8.27;;;;;;;;;;2015231;29;20021;-88
2022/08/31 02:56:27;;;;;;;19.60;7.10;;;;;;;;;;660281;29;10022029;-88
2022/08/31 02:57:27;;;;;;;11.32;8.05;;;;;;;;;;2015348;29;20071;-88
2022/08/31 02:58:28;;;;;;;12.73;8.35;;;;;;;;;;2015414;29;20044;-88
2022/08/31 02:59:28;;;;;;;9.60;8.18;;;;;;;;;;2007779;29;20029;-89
2022/08/31 03:00:29;;;;;;;10.30;8.77;;;;;;;;;;2015394;29;20071;-88
2022/08/31 03:01:30;;;;;;;10.25;7.70;;;;;;;;;;2015294;29;20024;-87
2022/08/31 03:02:31;;;;;;;11.00;7.97;;;;;;;;;;2007643;29;20056;-88
2022/08/31 03:03:33;;;;;;;11.65;8.35;;;;;;;;;;2015374;29;20147;-88
2022/08/31 03:04:34;;;;;;;16.45;8.82;;;;;;;;;;2023836;29;20020;-87
2022/08/31 03:05:34;;;;;;;10.60;8.68;;;;;;;;;;2015360;29;20087;-87
2022/08/31 03:06:35;;;;;;;14.25;8.68;;;;;;;;;;2015606;29;20516;-87
2022/08/31 03:07:36;;;;;;;13.00;8.93;;;;;;;;;;2015189;29;20449;-87
2022/08/31 03:08:38;;;;;;;15.88;9.15;;;;;;;;;;2015635;29;20044;-87
2022/08/31 03:09:38;;;;;;;10.90;8.65;;;;;;;;;;2023848;29;20039;-88
2022/08/31 03:10:39;;;;;;;13.07;8.20;;;;;;;;;;2015449;29;20021;-86
2022/08/31 03:11:39;;;;;;;12.20;9.02;;;;;;;;;;2007808;29;20459;-88
2022/08/31 03:12:40;;;;;;;10.45;8.13;;;;;;;;;;2015423;29;20464;-86
2022/08/31 03:13:41;;;;;;;11.82;8.27;;;;;;;;;;2015309;29;20445;-88
2022/08/31 03:14:42;;;;;;;13.45;8.90;;;;;;;;;;2015135;29;20036;-86
2022/08/31 03:15:42;;;;;;;11.65;8.30;;;;;;;;;;2015438;29;20087;-88
2022/08/31 03:16:43;;;;;;;11.57;8.52;;;;;;;;;;2023778;29;20036;-88
2022/08/31 03:17:43;;;;;;;12.70;9.20;;;;;;;;;;2023934;29;20032;-89
2022/08/31 03:18:45;;;;;;;10.90;8.75;;;;;;;;;;2023733;29;20029;-88
2022/08/31 03:19:45;;;;;;;11.93;8.70;;;;;;;;;;2023870;29;20029;-87
2022/08/31 03:20:45;;;;;;;11.70;8.90;;;;;;;;;;2015269;29;20120;-88
2022/08/31 03:21:46;;;;;;;13.07;8.85;;;;;;;;;;2015510;29;20029;-87
2022/08/31 03:22:46;;;;;;;14.07;8.80;;;;;;;;;;2023486;29;20112;-87
2022/08/31 03:23:47;;;;;;;13.35;9.48;;;;;;;;;;2015507;29;20029;-87
2022/08/31 03:24:47;;;;;;;15.13;9.68;;;;;;;;;;2007593;29;20022;-88
2022/08/31 03:25:47;;;;;;;12.68;8.43;;;;;;;;;;2007609;29;20034;-88
2022/08/31 03:26:48;;;;;;;14.57;9.45;;;;;;;;;;2007701;29;20037;-87
2022/08/31 03:27:49;;;;;;;14.88;8.65;;;;;;;;;;2015399;29;20029;-88
2022/08/31 03:28:50;;;;;;;15.70;9.57;;;;;;;;;;2023828;29;20092;-87
2022/08/31 03:29:51;;;;;;;14.32;9.35;;;;;;;;;;2023656;29;20115;-88
2022/08/31 03:30:51;;;;;;;14.82;9.40;;;;;;;;;;2015186;29;20577;-87
2022/08/31 03:31:52;;;;;;;13.70;9.40;;;;;;;;;;2015525;29;20138;-88
2022/08/31 03:32:52;;;;;;;12.25;9.38;;;;;;;;;;2015011;29;20546;-87
2022/08/31 03:33:53;;;;;;;14.55;9.57;;;;;;;;;;2015238;29;20052;-87
2022/08/31 03:34:55;;;;;;;12.40;9.32;;;;;;;;;;2015184;29;20157;-87
2022/08/31 03:35:56;;;;;;;13.52;9.13;;;;;;;;;;2015145;29;20177;-87
2022/08/31 03:36:56;;;;;;;11.73;8.95;;;;;;;;;;2007213;29;20037;-88
2022/08/31 03:37:57;;;;;;;14.30;9.32;;;;;;;;;;2015335;29;20088;-87
2022/08/31 03:38:58;;;;;;;11.60;8.95;;;;;;;;;;2023664;29;20036;-88
2022/08/31 03:39:59;;;;;;;13.32;9.25;;;;;;;;;;2023733;29;20131;-88
2022/08/31 03:41:00;;;;;;;18.02;9.55;;;;;;;;;;2023603;29;20048;-88
2022/08/31 03:42:01;;;;;;;12.25;9.40;;;;;;;;;;2023418;29;20032;-89
2022/08/31 03:43:02;;;;;;;16.83;9.23;;;;;;;;;;2015081;29;20035;-88
2022/08/31 03:44:03;;;;;;;13.55;9.02;;;;;;;;;;2014995;29;20061;-88
2022/08/31 03:45:04;;;;;;;14.98;9.70;;;;;;;;;;2015187;29;20033;-88
2022/08/31 03:46:04;;;;;;;12.15;9.20;;;;;;;;;;2023652;29;20098;-87
2022/08/31 03:47:05;;;;;;;13.13;10.27;;;;;;;;;;2023584;29;20044;-88
2022/08/31 03:48:06;;;;;;;14.25;10.55;;;;;;;;;;2023635;29;20108;-88
2022/08/31 03:49:06;;;;;;;13.65;10.18;;;;;;;;;;2015240;29;20096;-89
2022/08/31 03:50:09;;;;;;;14.82;9.40;;;;;;;;;;2015119;29;20033;-88
2022/08/31 03:51:11;;;;;;;15.57;9.75;;;;;;;;;;2023661;29;20115;-88
2022/08/31 03:52:12;;;;;;;12.20;9.13;;;;;;;;;;2023609;29;20384;-88
2022/08/31 03:53:12;;;;;;;15.43;9.23;;;;;;;;;;2016803;29;20052;-88
2022/08/31 03:54:13;;;;;;;12.23;9.25;;;;;;;;;;2016684;29;20531;-88
2022/08/31 03:55:14;;;;;;;15.07;9.55;;;;;;;;;;2025099;29;20110;-88
2022/08/31 03:56:14;;;;;;;12.52;9.82;;;;;;;;;;2025249;29;20029;-87
2022/08/31 03:57:15;;;;;;;12.93;9.23;;;;;;;;;;2016633;29;20489;-87
2022/08/31 03:58:16;;;;;;;14.73;9.48;;;;;;;;;;2016598;29;20180;-88
2022/08/31 03:59:16;;;;;;;15.27;10.02;;;;;;;;;;2016884;29;20551;-88
2022/08/31 04:00:17;;;;;;;12.63;9.80;;;;;;;;;;2024758;29;20045;-87
2022/08/31 04:01:17;;;;;;;13.18;9.13;;;;;;;;;;2016660;29;20045;-88
2022/08/31 04:02:17;;;;;;;15.77;9.43;;;;;;;;;;2016476;29;20053;-87
2022/08/31 04:03:18;;;;;;;13.77;9.43;;;;;;;;;;2016484;29;20039;-87
2022/08/31 04:04:18;;;;;;;14.82;9.50;;;;;;;;;;2024860;29;20035;-88
2022/08/31 04:05:20;;;;;;;14.32;9.50;;;;;;;;;;2025218;29;20021;-87
2022/08/31 04:06:21;;;;;;;13.15;8.95;;;;;;;;;;2016513;29;20112;-88
2022/08/31 04:07:21;;;;;;;12.27;8.95;;;;;;;;;;2008995;29;20057;-87
2022/08/31 04:08:22;;;;;;;15.40;10.15;;;;;;;;;;2016600;29;20025;-88
2022/08/31 04:09:23;;;;;;;14.68;8.90;;;;;;;;;;2024889;29;20020;-87
2022/08/31 04:10:23;;;;;;;13.48;9.38;;;;;;;;;;2016388;29;20158;-88
2022/08/31 04:11:25;;;;;;;16.20;9.77;;;;;;;;;;2016719;29;20448;-88
2022/08/31 04:12:26;;;;;;;12.60;9.65;;;;;;;;;;2016613;29;20111;-88
2022/08/31 04:13:26;;;;;;;12.40;9.60;;;;;;;;;;2016498;29;20119;-88
2022/08/31 04:14:27;;;;;;;13.02;9.40;;;;;;;;;;2016576;29;20516;-87
2022/08/31 04:15:27;;;;;;;14.90;9.32;;;;;;;;;;2008908;29;20068;-87
2022/08/31 04:16:28;;;;;;;11.90;10.00;;;;;;;;;;2016422;29;20124;-87
2022/08/31 04:17:28;;;;;;;14.60;10.35;;;;;;;;;;2016449;29;20028;-88
2022/08/31 04:18:29;;;;;;;11.75;9.50;;;;;;;;;;2024927;29;20163;-86
2022/08/31 04:19:29;;;;;;;13.90;10.13;;;;;;;;;;2016368;29;20029;-87
2022/08/31 04:20:36;;;;;;;13.70;9.77;;;;;;;;;;2016556;29;20101;-88
2022/08/31 04:21:39;;;;;;;13.80;10.35;;;;;;;;;;2016417;29;20536;-88
2022/08/31 04:22:40;;;;;;;13.52;9.95;;;;;;;;;;2008829;29;20029;-88
2022/08/31 04:23:40;;;;;;;15.98;10.73;;;;;;;;;;2008576;29;20346;-88
2022/08/31 04:24:42;;;;;;;15.82;10.00;;;;;;;;;;2016635;29;20138;-88
2022/08/31 04:25:42;;;;;;;13.07;9.73;;;;;;;;;;2025414;29;20366;-85
2022/08/31 04:26:42;;;;;;;14.10;9.02;;;;;;;;;;2016837;29;20095;-87
2022/08/31 04:27:43;;;;;;;16.88;9.73;;;;;;;;;;2008560;29;20025;-87
2022/08/31 04:28:44;;;;;;;13.80;9.50;;;;;;;;;;2016472;29;20382;-88
2022/08/31 04:29:44;;;;;;;12.50;8.80;;;;;;;;;;2024793;29;20065;-87
2022/08/31 04:30:47;;;;;;;17.17;10.18;;;;;;;;;;2024915;29;20112;-88
2022/08/31 04:31:47;;;;;;;16.65;10.18;;;;;;;;;;2024609;29;20032;-87
2022/08/31 04:32:48;;;;;;;17.23;10.02;;;;;;;;;;2016503;29;20037;-87
2022/08/31 04:33:50;;;;;;;12.77;9.43;;;;;;;;;;2008664;29;20044;-88
2022/08/31 04:34:50;;;;;;;14.95;9.93;;;;;;;;;;2016453;29;20462;-87
2022/08/31 04:35:51;;;;;;;15.88;9.77;;;;;;;;;;2024093;29;20080;-88
2022/08/31 04:36:51;;;;;;;13.65;9.10;;;;;;;;;;2016347;29;20108;-88
2022/08/31 04:37:51;;;;;;;13.95;10.52;;;;;;;;;;2016392;29;20303;-87
2022/08/31 04:38:54;;;;;;;14.75;9.63;;;;;;;;;;2024719;29;20363;-87
2022/08/31 04:39:56;;;;;;;11.85;9.23;;;;;;;;;;2016171;29;20033;-88
2022/08/31 04:40:57;;;;;;;17.63;9.20;;;;;;;;;;2008994;29;20056;-87
2022/08/31 04:41:57;;;;;;;15.32;9.20;;;;;;;;;;2016050;29;20382;-87
2022/08/31 04:43:00;;;;;;;13.60;8.98;;;;;;;;;;2016460;29;20052;-87
2022/08/31 04:44:02;;;;;;;11.77;8.85;;;;;;;;;;2024785;29;20401;-87
2022/08/31 04:45:03;;;;;;;12.38;9.38;;;;;;;;;;2024849;29;20031;-87
2022/08/31 04:46:06;;;;;;;13.57;9.98;;;;;;;;;;2016161;29;20986;-87
2022/08/31 04:47:07;;;;;;;12.85;9.05;;;;;;;;;;2008897;29;20097;-88
2022/08/31 04:48:07;;;;;;;14.25;9.20;;;;;;;;;;2016374;29;20032;-88
2022/08/31 04:49:09;;;;;;;13.68;8.55;;;;;;;;;;2016214;29;20093;-88
2022/08/31 04:50:12;;;;;;;10.68;8.68;;;;;;;;;;2016436;29;20043;-88
2022/08/31 04:51:21;;;;;;;13.27;9.10;;;;;;;;;;2016295;29;20028;-89
2022/08/31 04:52:22;;;;;;;12.98;9.13;;;;;;;;;;2017378;29;20556;-88
2022/08/31 04:53:22;;;;;;;16.05;8.70;;;;;;;;;;2016198;29;20017;-88
2022/08/31 04:54:22;;;;;;;15.00;9.95;;;;;;;;;;2008410;29;20124;-88
2022/08/31 04:55:23;;;;;;;12.95;9.30;;;;;;;;;;2016258;29;20075;-88
2022/08/31 04:56:30;;;;;;;13.98;10.00;;;;;;;;;;2024714;29;20036;-88
2022/08/31 04:57:33;;;;;;;11.48;9.32;;;;;;;;;;2016328;29;20057;-88
2022/08/31 04:58:34;;;;;;;16.15;9.45;;;;;;;;;;2008568;29;20451;-89
2022/08/31 04:59:34;;;;;;;11.75;8.85;;;;;;;;;;2016173;29;20033;-89
2022/08/31 05:00:36;;;;;;;14.32;9.68;;;;;;;;;;2016207;29;20040;-89
2022/08/31 05:01:40;;;;;;;11.20;8.50;;;;;;;;;;2016299;29;20036;-89
2022/08/31 05:02:40;;;;;;;12.57;8.48;;;;;;;;;;2016543;29;20144;-89
2022/08/31 05:03:52;;;;;;;14.79;8.80;;;;;;;;;;1662765;29;10001935;-89
2022/08/31 05:04:52;;;;;;;11.02;8.60;;;;;;;;;;2008009;29;20085;-89
2022/08/31 05:05:52;;;;;;;11.07;8.50;;;;;;;;;;2000924;29;20038;-91
2022/08/31 05:06:53;;;;;;;11.95;8.57;;;;;;;;;;1668614;29;10133830;-89
2022/08/31 05:07:53;;;;;;;10.50;8.38;;;;;;;;;;2008389;29;20543;-89
2022/08/31 05:08:55;;;;;;;11.52;8.45;;;;;;;;;;2008671;29;20034;-89
2022/08/31 05:09:56;;;;;;;10.50;8.70;;;;;;;;;;2008323;29;20036;-89
2022/08/31 05:10:56;;;;;;;11.60;7.55;;;;;;;;;;2008439;29;20373;-88
2022/08/31 05:11:57;;;;;;;12.98;9.00;;;;;;;;;;2008504;29;20112;-88
2022/08/31 05:12:57;;;;;;;14.40;8.63;;;;;;;;;;2008588;29;20390;-88
2022/08/31 05:13:59;;;;;;;12.80;8.65;;;;;;;;;;2016212;29;20587;-88
2022/08/31 05:15:00;;;;;;;10.35;8.05;;;;;;;;;;2008392;29;20033;-89
2022/08/31 05:16:03;;;;;;;9.98;8.43;;;;;;;;;;2000688;29;20040;-88
2022/08/31 05:17:06;;;;;;;12.45;8.40;;;;;;;;;;2008490;29;20053;-88
2022/08/31 05:18:07;;;;;;;12.07;8.68;;;;;;;;;;2008957;29;20421;-88
2022/08/31 05:19:08;;;;;;;14.15;8.50;;;;;;;;;;2008458;29;20116;-89
2022/08/31 05:20:09;;;;;;;10.55;8.32;;;;;;;;;;2007889;29;20037;-88
2022/08/31 05:21:09;;;;;;;12.02;8.98;;;;;;;;;;2016578;29;20087;-89
2022/08/31 05:22:10;;;;;;;11.57;8.30;;;;;;;;;;2008380;29;20022;-89
2022/08/31 05:23:11;;;;;;;10.80;8.05;;;;;;;;;;2008471;29;20046;-89
2022/08/31 05:24:14;;;;;;;10.70;7.90;;;;;;;;;;2016554;29;20021;-89
2022/08/31 05:25:15;;;;;;;9.77;8.32;;;;;;;;;;2016698;29;20025;-88
2022/08/31 05:26:18;;;;;;;10.77;7.53;;;;;;;;;;2008322;29;20060;-88
2022/08/31 05:27:18;;;;;;;13.98;8.90;;;;;;;;;;2008745;29;20137;-88
2022/08/31 05:28:22;;;;;;;11.50;7.72;;;;;;;;;;2008217;29;20505;-89
2022/08/31 05:29:24;;;;;;;11.02;8.18;;;;;;;;;;2008854;29;20077;-87
2022/08/31 05:30:26;;;;;;;10.25;7.40;;;;;;;;;;2016666;29;20040;-87
2022/08/31 05:31:30;;;;;;;14.57;8.48;;;;;;;;;;2008022;29;20036;-88
2022/08/31 05:32:30;;;;;;;13.20;8.60;;;;;;;;;;2008089;29;20461;-88
2022/08/31 05:33:30;;;;;;;11.23;8.65;;;;;;;;;;2008297;29;20037;-87
2022/08/31 05:34:31;;;;;;;9.50;8.40;;;;;;;;;;2008196;29;20032;-87
2022/08/31 05:35:33;;;;;;;10.02;8.38;;;;;;;;;;2016607;29;20520;-88
2022/08/31 05:36:34;;;;;;;12.65;8.65;;;;;;;;;;2008256;29;20035;-88
2022/08/31 05:37:34;;;;;;;9.68;7.50;;;;;;;;;;2000854;29;20400;-88
2022/08/31 05:38:35;;;;;;;12.38;7.80;;;;;;;;;;2008374;29;20033;-89
2022/08/31 05:39:36;;;;;;;8.82;7.93;;;;;;;;;;2008304;29;20113;-88
2022/08/31 05:40:36;;;;;;;12.98;8.18;;;;;;;;;;2000474;29;20037;-88
2022/08/31 05:41:42;;;;;;;14.02;8.25;;;;;;;;;;2008241;29;20116;-88
2022/08/31 05:42:42;;;;;;;7.82;6.97;;;;;;;;;;2016491;29;20532;-88
2022/08/31 05:43:43;;;;;;;8.75;7.47;;;;;;;;;;2008072;29;20033;-87
2022/08/31 05:44:43;;;;;;;13.20;7.55;;;;;;;;;;2008324;29;20081;-87
2022/08/31 05:45:44;;;;;;;10.55;7.40;;;;;;;;;;2008394;29;20457;-88
2022/08/31 05:46:44;;;;;;;14.38;7.53;;;;;;;;;;2008053;29;20525;-88
2022/08/31 05:47:45;;;;;;;8.50;7.28;;;;;;;;;;2008345;29;20040;-88
2022/08/31 05:48:45;;;;;;;12.70;7.63;;;;;;;;;;2016392;29;20112;-88
2022/08/31 05:49:46;;;;;;;10.15;7.45;;;;;;;;;;1671083;29;10266555;-87
2022/08/31 05:50:46;;;;;;;8.85;7.80;;;;;;;;;;2016478;29;20576;-87
2022/08/31 05:51:47;;;;;;;11.88;8.35;;;;;;;;;;2008356;29;20312;-87
2022/08/31 05:52:47;;;;;;;9.52;6.65;;;;;;;;;;2008127;29;20182;-88
2022/08/31 05:53:48;;;;;;;8.48;7.15;;;;;;;;;;2015904;29;20496;-87
2022/08/31 05:54:48;;;;;;;11.20;7.72;;;;;;;;;;2008220;29;20038;-88
2022/08/31 05:55:57;;;;;;;11.15;7.20;;;;;;;;;;2007951;29;20129;-87
2022/08/31 05:56:57;;;;;;;10.77;7.90;;;;;;;;;;2009032;29;20037;-87
2022/08/31 05:57:59;;;;;;;10.07;7.63;;;;;;;;;;2016490;29;20041;-87
2022/08/31 05:59:00;;;;;;;8.02;7.07;;;;;;;;;;2016407;29;20048;-86
2022/08/31 06:00:00;;;;;;;11.23;7.25;;;;;;;;;;2016411;29;20025;-87
2022/08/31 06:01:01;;;;;;;;;;;;;;;;;;1663667;29;10285765;-87
2022/08/31 06:02:03;;;;;;;8.05;6.93;;;;;;;;;;2008097;29;20495;-87
2022/08/31 06:03:04;;;;;;;9.63;6.93;;;;;;;;;;2008269;29;20036;-86
2022/08/31 06:04:07;;;;;;;7.10;6.20;;;;;;;;;;1337282;29;10000897;-87
2022/08/31 06:05:08;;;;;;;7.93;6.15;;;;;;;;;;2008351;29;20096;-86
2022/08/31 06:06:08;;;;;;;9.88;6.82;;;;;;;;;;2015882;29;20535;-87
2022/08/31 06:07:09;;;;;;;8.50;6.43;;;;;;;;;;2016595;29;20495;-87
2022/08/31 06:08:09;;;;;;;11.65;6.47;;;;;;;;;;2016318;29;20235;-86